createdAt,value
2023-04-03T00:00:51.239Z,2.20
2023-04-03T00:03:19.839Z,2.10
2023-04-03T00:05:47.474Z,2.10
2023-04-03T00:08:14.444Z,2.10
2023-04-03T00:10:41.708Z,2.10
2023-04-03T00:13:09.319Z,2.10
2023-04-03T00:15:37.537Z,2.00
2023-04-03T00:18:04.532Z,2.00
2023-04-03T00:20:31.852Z,2.00
2023-04-03T00:22:59.118Z,2.00
2023-04-03T00:25:26.217Z,1.90
2023-04-03T00:27:53.081Z,1.90
2023-04-03T00:30:22.255Z,1.90
2023-04-03T00:32:50.739Z,1.90
2023-04-03T00:35:19.014Z,1.90
2023-04-03T00:37:46.666Z,1.90
2023-04-03T00:40:15.320Z,1.90
2023-04-03T00:42:44.112Z,1.90
2023-04-03T00:45:36.563Z,1.90
2023-04-03T00:48:06.979Z,1.80
2023-04-03T00:50:38.077Z,1.80
2023-04-03T00:53:07.273Z,1.80
2023-04-03T00:55:36.627Z,1.80
2023-04-03T00:58:04.096Z,1.80
2023-04-03T01:00:31.213Z,1.70
2023-04-03T01:02:58.126Z,1.70
2023-04-03T01:05:25.287Z,1.70
2023-04-03T01:07:53.549Z,1.70
2023-04-03T01:10:21.759Z,1.70
2023-04-03T01:12:51.439Z,1.60
2023-04-03T01:15:25.486Z,1.60
2023-04-03T01:17:57.620Z,1.60
2023-04-03T01:20:34.133Z,1.60
2023-04-03T01:23:09.875Z,1.60
2023-04-03T01:25:51.956Z,1.60
2023-04-03T01:28:25.697Z,1.60
2023-04-03T01:31:30.444Z,1.50
2023-04-03T01:33:57.414Z,1.50
2023-04-03T01:36:30.775Z,1.50
2023-04-03T01:39:00.149Z,1.40
2023-04-03T01:41:27.384Z,1.40
2023-04-03T01:43:54.222Z,1.40
2023-04-03T01:46:22.049Z,1.30
2023-04-03T01:48:49.508Z,1.30
2023-04-03T01:51:16.396Z,1.30
2023-04-03T01:53:43.363Z,1.20
2023-04-03T01:56:10.487Z,1.20
2023-04-03T01:58:37.346Z,1.20
2023-04-03T02:01:04.451Z,1.20
2023-04-03T02:03:31.926Z,1.10
2023-04-03T02:05:58.801Z,1.10
2023-04-03T02:08:25.865Z,1.10
2023-04-03T02:10:53.112Z,1.10
2023-04-03T02:13:20.339Z,1.00
2023-04-03T02:15:47.289Z,1.00
2023-04-03T02:18:14.496Z,1.00
2023-04-03T02:20:41.580Z,0.90
2023-04-03T02:23:08.510Z,0.90
2023-04-03T02:25:37.209Z,0.90
2023-04-03T02:28:05.564Z,0.90
2023-04-03T02:30:32.458Z,0.80
2023-04-03T02:32:59.296Z,0.80
2023-04-03T02:35:26.301Z,0.80
2023-04-03T02:37:53.184Z,0.70
2023-04-03T02:40:20.070Z,0.70
2023-04-03T02:42:46.929Z,0.70
2023-04-03T02:45:13.914Z,0.60
2023-04-03T02:47:42.152Z,0.60
2023-04-03T02:50:09.333Z,0.60
2023-04-03T02:52:36.200Z,0.60
2023-04-03T02:55:03.735Z,0.50
2023-04-03T02:57:30.880Z,0.50
2023-04-03T02:59:57.864Z,0.40
2023-04-03T03:02:24.865Z,0.40
2023-04-03T03:04:51.742Z,0.40
2023-04-03T03:07:18.574Z,0.30
2023-04-03T03:09:45.389Z,0.30
2023-04-03T03:12:12.241Z,0.20
2023-04-03T03:14:39.141Z,0.20
2023-04-03T03:17:06.272Z,0.20
2023-04-03T03:19:33.635Z,0.10
2023-04-03T03:22:00.568Z,0.10
2023-04-03T03:24:27.379Z,0.00
2023-04-03T03:26:54.207Z,0.00
2023-04-03T03:29:21.280Z,-0.10
2023-04-03T03:31:48.180Z,-0.10
2023-04-03T03:34:15.014Z,-0.10
2023-04-03T03:36:42.341Z,-0.20
2023-04-03T03:39:09.174Z,-0.20
2023-04-03T03:41:36.345Z,-0.20
2023-04-03T03:44:03.159Z,-0.30
2023-04-03T03:46:30.222Z,-0.30
2023-04-03T03:48:57.207Z,-0.30
2023-04-03T03:51:24.020Z,-0.30
2023-04-03T03:53:51.051Z,-0.40
2023-04-03T03:56:18.126Z,-0.30
2023-04-03T03:58:45.014Z,-0.40
2023-04-03T04:01:11.998Z,-0.40
2023-04-03T04:03:38.925Z,-0.40
2023-04-03T04:06:06.001Z,-0.40
2023-04-03T04:08:32.962Z,-0.40
2023-04-03T04:10:59.924Z,-0.40
2023-04-03T04:13:26.789Z,-0.40
2023-04-03T04:15:53.566Z,-0.40
2023-04-03T04:18:22.574Z,-0.40
2023-04-03T04:20:49.673Z,-0.40
2023-04-03T04:23:18.538Z,-0.40
2023-04-03T04:25:47.021Z,-0.50
2023-04-03T04:28:14.070Z,-0.50
2023-04-03T04:30:40.997Z,-0.50
2023-04-03T04:33:08.221Z,-0.50
2023-04-03T04:35:35.788Z,-0.50
2023-04-03T04:38:03.693Z,-0.50
2023-04-03T04:40:30.662Z,-0.60
2023-04-03T04:42:57.467Z,-0.60
2023-04-03T04:45:24.426Z,-0.60
2023-04-03T04:47:53.273Z,-0.60
2023-04-03T04:50:20.824Z,-0.60
2023-04-03T04:52:47.712Z,-0.60
2023-04-03T04:55:14.525Z,-0.60
2023-04-03T04:57:42.382Z,-0.60
2023-04-03T05:00:09.895Z,-0.60
2023-04-03T05:02:36.766Z,-0.60
2023-04-03T05:05:05.362Z,-0.60
2023-04-03T05:07:32.638Z,-0.60
2023-04-03T05:09:59.457Z,-0.60
2023-04-03T05:12:26.331Z,-0.70
2023-04-03T05:14:53.245Z,-0.70
2023-04-03T05:17:20.430Z,-0.70
2023-04-03T05:19:47.468Z,-0.60
2023-04-03T05:22:14.289Z,-0.60
2023-04-03T05:24:41.206Z,-0.60
2023-04-03T05:27:08.080Z,-0.60
2023-04-03T05:29:34.898Z,-0.60
2023-04-03T05:32:01.800Z,-0.60
2023-04-03T05:34:29.153Z,-0.60
2023-04-03T05:36:56.273Z,-0.50
2023-04-03T05:39:24.027Z,-0.50
2023-04-03T05:41:51.241Z,-0.50
2023-04-03T05:44:18.053Z,-0.40
2023-04-03T05:46:44.894Z,-0.40
2023-04-03T05:49:11.728Z,-0.40
2023-04-03T05:51:39.625Z,-0.40
2023-04-03T05:54:26.649Z,-0.30
2023-04-03T05:56:54.188Z,-0.30
2023-04-03T05:59:22.082Z,-0.30
2023-04-03T06:01:49.492Z,-0.20
2023-04-03T06:04:16.696Z,-0.20
2023-04-03T06:06:55.815Z,-0.20
2023-04-03T06:09:25.203Z,-0.10
2023-04-03T06:11:52.983Z,-0.10
2023-04-03T06:14:20.437Z,0.00
2023-04-03T06:16:47.409Z,0.10
2023-04-03T06:19:14.328Z,0.10
2023-04-03T06:21:41.256Z,0.20
2023-04-03T06:24:08.389Z,0.30
2023-04-03T06:26:36.114Z,0.30
2023-04-03T06:29:03.462Z,0.40
2023-04-03T06:31:30.904Z,0.40
2023-04-03T06:33:57.939Z,0.50
2023-04-03T06:36:25.234Z,0.50
2023-04-03T06:38:52.073Z,0.60
2023-04-03T06:41:19.003Z,0.70
2023-04-03T06:43:46.590Z,0.70
2023-04-03T06:46:22.348Z,0.80
2023-04-03T06:48:50.320Z,0.80
2023-04-03T06:51:19.989Z,0.90
2023-04-03T06:53:51.888Z,0.90
2023-04-03T06:56:19.017Z,1.00
2023-04-03T06:58:46.143Z,1.10
2023-04-03T07:01:15.113Z,1.10
2023-04-03T07:03:42.171Z,1.20
2023-04-03T07:06:12.585Z,1.20
2023-04-03T07:08:40.482Z,1.30
2023-04-03T07:11:07.569Z,1.40
2023-04-03T07:13:34.604Z,1.40
2023-04-03T07:16:02.198Z,1.40
2023-04-03T07:18:28.974Z,1.50
2023-04-03T07:20:56.446Z,1.60
2023-04-03T07:23:25.424Z,1.60
2023-04-03T07:25:53.236Z,1.70
2023-04-03T07:28:21.798Z,1.80
2023-04-03T07:30:51.649Z,1.90
2023-04-03T07:33:20.673Z,1.90
2023-04-03T07:35:47.688Z,2.00
2023-04-03T07:38:14.658Z,2.10
2023-04-03T07:40:47.977Z,2.20
2023-04-03T07:43:19.191Z,2.20
2023-04-03T07:45:46.448Z,2.30
2023-04-03T07:48:14.569Z,2.40
2023-04-03T07:50:42.042Z,2.40
2023-04-03T07:53:09.298Z,2.50
2023-04-03T07:55:41.528Z,2.60
2023-04-03T07:58:08.438Z,2.60
2023-04-03T08:00:35.640Z,2.70
2023-04-03T08:03:02.816Z,2.70
2023-04-03T08:05:29.856Z,2.70
2023-04-03T08:07:56.708Z,2.90
2023-04-03T08:10:24.945Z,2.90
2023-04-03T08:12:52.625Z,3.00
2023-04-03T08:15:19.535Z,3.10
2023-04-03T08:17:46.628Z,3.20
2023-04-03T08:20:13.583Z,3.40
2023-04-03T08:22:40.552Z,3.60
2023-04-03T08:25:08.045Z,3.90
2023-04-03T08:27:35.547Z,4.70
2023-04-03T08:30:02.520Z,6.40
2023-04-03T08:32:29.565Z,8.80
2023-04-03T08:34:56.503Z,11.30
2023-04-03T08:37:23.381Z,13.70
2023-04-03T08:39:51.068Z,15.70
2023-04-03T08:42:40.999Z,17.10
2023-04-03T08:45:14.688Z,18.20
2023-04-03T08:47:59.552Z,18.90
2023-04-03T08:50:38.855Z,19.80
2023-04-03T08:53:12.982Z,20.60
2023-04-03T08:55:46.275Z,21.10
2023-04-03T08:58:19.347Z,21.40
2023-04-03T09:00:59.977Z,21.50
2023-04-03T09:03:30.126Z,21.50
2023-04-03T09:06:04.534Z,21.70
2023-04-03T09:08:37.964Z,22.20
2023-04-03T09:11:27.724Z,22.10
2023-04-03T09:14:14.917Z,22.00
2023-04-03T09:16:58.056Z,22.20
2023-04-03T09:19:39.612Z,22.50
2023-04-03T09:22:25.109Z,22.60
2023-04-03T09:25:00.008Z,23.00
2023-04-03T09:27:27.497Z,23.60
2023-04-03T09:29:58.615Z,24.10
2023-04-03T09:32:31.722Z,24.50
2023-04-03T09:35:19.249Z,24.80
2023-04-03T09:37:50.104Z,25.20
2023-04-03T09:40:26.502Z,25.50
2023-04-03T09:43:27.228Z,25.70
2023-04-03T09:45:55.622Z,25.50
2023-04-03T09:48:27.530Z,25.40
2023-04-03T09:51:00.241Z,25.50
2023-04-03T09:53:31.871Z,25.50
2023-04-03T09:55:59.475Z,25.50
2023-04-03T09:58:46.920Z,25.60
2023-04-03T10:01:35.427Z,25.90
2023-04-03T10:04:18.318Z,26.10
2023-04-03T10:06:48.189Z,26.20
2023-04-03T10:09:30.594Z,26.30
2023-04-03T10:12:15.404Z,26.30
2023-04-03T10:14:59.920Z,26.20
2023-04-03T10:18:21.655Z,26.00
2023-04-03T10:20:53.687Z,26.10
2023-04-03T10:23:34.180Z,26.10
2023-04-03T10:26:23.011Z,26.10
2023-04-03T10:29:15.431Z,26.10
2023-04-03T10:31:54.241Z,26.20
2023-04-03T10:34:36.618Z,26.50
2023-04-03T10:37:33.281Z,26.70
2023-04-03T10:40:33.318Z,26.40
2023-04-03T10:43:26.690Z,26.50
2023-04-03T10:45:57.516Z,26.70
2023-04-03T10:48:41.222Z,26.80
2023-04-03T10:51:14.173Z,26.70
2023-04-03T10:54:14.321Z,26.50
2023-04-03T10:56:51.220Z,26.40
2023-04-03T10:59:36.508Z,26.40
2023-04-03T11:02:13.081Z,26.60
2023-04-03T11:04:44.712Z,26.80
2023-04-03T11:07:18.573Z,26.80
2023-04-03T11:09:46.784Z,26.60
2023-04-03T11:12:29.839Z,26.70
2023-04-03T11:14:58.458Z,26.60
2023-04-03T11:17:34.933Z,26.70
2023-04-03T11:20:18.330Z,26.80
2023-04-03T11:23:01.395Z,26.80
2023-04-03T11:25:31.744Z,27.00
2023-04-03T11:28:00.672Z,26.90
2023-04-03T11:30:34.565Z,26.70
2023-04-03T11:33:02.903Z,26.60
2023-04-03T11:35:30.578Z,26.30
2023-04-03T11:37:59.376Z,26.10
2023-04-03T11:40:31.866Z,25.90
2023-04-03T11:43:19.418Z,26.00
2023-04-03T11:45:52.779Z,26.10
2023-04-03T11:48:24.823Z,26.40
2023-04-03T11:50:52.986Z,26.50
2023-04-03T11:53:33.962Z,26.60
2023-04-03T11:56:25.519Z,26.80
2023-04-03T11:59:14.672Z,26.60
2023-04-03T12:01:44.743Z,26.70
2023-04-03T12:04:15.422Z,26.90
2023-04-03T12:06:44.287Z,26.90
2023-04-03T12:09:29.530Z,26.60
2023-04-03T12:11:58.372Z,26.60
2023-04-03T12:14:26.800Z,26.40
2023-04-03T12:16:58.388Z,26.30
2023-04-03T12:19:43.088Z,26.00
2023-04-03T12:22:16.904Z,26.00
2023-04-03T12:24:47.916Z,26.40
2023-04-03T12:27:41.600Z,26.40
2023-04-03T12:30:17.782Z,26.60
2023-04-03T12:33:09.642Z,26.70
2023-04-03T12:35:45.067Z,26.70
2023-04-03T12:38:33.635Z,26.50
2023-04-03T12:41:41.170Z,26.40
2023-04-03T12:44:27.105Z,26.30
2023-04-03T12:46:54.776Z,26.30
2023-04-03T12:49:31.112Z,26.40
2023-04-03T12:51:58.518Z,26.50
2023-04-03T12:54:40.727Z,26.50
2023-04-03T12:57:16.421Z,26.40
2023-04-03T12:59:46.420Z,26.40
2023-04-03T13:02:24.699Z,26.30
2023-04-03T13:04:53.959Z,26.30
2023-04-03T13:07:34.735Z,26.40
2023-04-03T13:10:08.826Z,26.30
2023-04-03T13:12:46.317Z,26.00
2023-04-03T13:15:19.270Z,25.80
2023-04-03T13:17:46.981Z,25.40
2023-04-03T13:20:30.204Z,25.10
2023-04-03T13:23:02.790Z,24.80
2023-04-03T13:25:37.328Z,24.70
2023-04-03T13:28:13.870Z,24.40
2023-04-03T13:30:54.569Z,23.80
2023-04-03T13:33:25.172Z,23.50
2023-04-03T13:36:08.551Z,23.50
2023-04-03T13:38:37.450Z,23.80
2023-04-03T13:41:26.868Z,24.10
2023-04-03T13:43:57.996Z,24.40
2023-04-03T13:46:34.077Z,24.70
2023-04-03T13:49:22.837Z,24.40
2023-04-03T13:52:00.565Z,23.50
2023-04-03T13:54:39.526Z,23.10
2023-04-03T13:57:15.674Z,23.10
2023-04-03T13:59:44.206Z,23.20
2023-04-03T14:02:34.676Z,23.30
2023-04-03T14:05:04.499Z,23.40
2023-04-03T14:07:32.181Z,23.30
2023-04-03T14:09:59.693Z,23.20
2023-04-03T14:12:35.213Z,23.10
2023-04-03T14:15:04.592Z,23.00
2023-04-03T14:17:32.180Z,23.00
2023-04-03T14:19:59.869Z,22.90
2023-04-03T14:22:30.452Z,22.80
2023-04-03T14:24:58.514Z,22.80
2023-04-03T14:27:29.511Z,22.60
2023-04-03T14:30:01.463Z,22.20
2023-04-03T14:32:28.592Z,21.70
2023-04-03T14:34:56.283Z,20.90
2023-04-03T14:37:28.839Z,20.10
2023-04-03T14:39:59.927Z,19.20
2023-04-03T14:42:31.980Z,18.50
2023-04-03T14:45:00.471Z,18.10
2023-04-03T14:47:32.133Z,17.40
2023-04-03T14:50:05.116Z,16.80
2023-04-03T14:52:35.846Z,16.30
2023-04-03T14:55:06.886Z,15.70
2023-04-03T14:57:34.546Z,15.30
2023-04-03T15:00:02.975Z,14.90
2023-04-03T15:02:41.580Z,14.70
2023-04-03T15:05:10.996Z,14.40
2023-04-03T15:07:50.363Z,14.20
2023-04-03T15:10:19.526Z,14.00
2023-04-03T15:12:47.248Z,13.80
2023-04-03T15:15:15.738Z,13.70
2023-04-03T15:17:43.579Z,13.60
2023-04-03T15:20:21.752Z,13.50
2023-04-03T15:22:48.723Z,13.30
2023-04-03T15:25:16.034Z,13.00
2023-04-03T15:27:43.239Z,12.80
2023-04-03T15:30:18.344Z,12.60
2023-04-03T15:32:45.466Z,12.40
2023-04-03T15:35:12.610Z,12.20
2023-04-03T15:37:39.726Z,12.10
2023-04-03T15:40:07.953Z,11.80
2023-04-03T15:42:34.894Z,11.70
2023-04-03T15:45:02.089Z,11.60
2023-04-03T15:47:29.398Z,11.50
2023-04-03T15:49:59.132Z,11.40
2023-04-03T15:52:26.064Z,11.30
2023-04-03T15:54:52.936Z,11.20
2023-04-03T15:57:20.059Z,11.10
2023-04-03T15:59:46.950Z,11.00
2023-04-03T16:02:14.631Z,10.90
2023-04-03T16:04:42.014Z,10.70
2023-04-03T16:07:09.277Z,10.70
2023-04-03T16:09:36.956Z,10.60
2023-04-03T16:12:04.398Z,10.60
2023-04-03T16:14:31.497Z,10.50
2023-04-03T16:17:00.075Z,10.50
2023-04-03T16:19:27.146Z,10.50
2023-04-03T16:21:56.390Z,10.40
2023-04-03T16:24:24.704Z,10.40
2023-04-03T16:26:51.713Z,10.40
2023-04-03T16:29:18.535Z,10.40
2023-04-03T16:31:48.087Z,10.30
2023-04-03T16:34:15.265Z,10.30
2023-04-03T16:36:42.118Z,10.30
2023-04-03T16:39:10.773Z,10.30
2023-04-03T16:41:38.909Z,10.30
2023-04-03T16:44:06.313Z,10.30
2023-04-03T16:46:35.598Z,10.30
2023-04-03T16:49:02.726Z,10.30
2023-04-03T16:51:29.838Z,10.30
2023-04-03T16:53:57.043Z,10.30
2023-04-03T16:56:23.934Z,10.30
2023-04-03T16:58:51.297Z,10.20
2023-04-03T17:01:23.367Z,10.20
2023-04-03T17:03:50.441Z,10.10
2023-04-03T17:06:20.557Z,10.00
2023-04-03T17:08:49.445Z,10.00
2023-04-03T17:11:17.063Z,9.90
2023-04-03T17:13:43.994Z,9.80
2023-04-03T17:16:14.628Z,9.80
2023-04-03T17:18:42.698Z,9.70
2023-04-03T17:21:09.763Z,9.60
2023-04-03T17:23:39.032Z,9.50
2023-04-03T17:26:06.164Z,9.40
2023-04-03T17:28:33.080Z,9.30
2023-04-03T17:31:03.848Z,9.10
2023-04-03T17:33:31.294Z,9.00
2023-04-03T17:35:59.442Z,8.90
2023-04-03T17:38:26.348Z,8.70
2023-04-03T17:41:00.834Z,8.60
2023-04-03T17:43:28.217Z,8.40
2023-04-03T17:46:03.599Z,8.30
2023-04-03T17:48:32.213Z,8.20
2023-04-03T17:50:59.845Z,8.10
2023-04-03T17:53:27.710Z,8.00
2023-04-03T17:55:54.607Z,7.90
2023-04-03T17:58:21.538Z,7.70
2023-04-03T18:00:48.519Z,7.70
2023-04-03T18:03:15.604Z,7.50
2023-04-03T18:05:42.547Z,7.40
2023-04-03T18:08:09.519Z,7.30
2023-04-03T18:10:37.569Z,7.30
2023-04-03T18:13:07.431Z,7.20
2023-04-03T18:15:34.476Z,7.10
2023-04-03T18:18:01.583Z,7.00
2023-04-03T18:20:31.444Z,6.90
2023-04-03T18:22:59.255Z,6.80
2023-04-03T18:25:26.150Z,6.70
2023-04-03T18:27:53.246Z,6.60
2023-04-03T18:30:20.115Z,6.60
2023-04-03T18:32:47.080Z,6.50
2023-04-03T18:35:14.047Z,6.40
2023-04-03T18:37:41.626Z,6.30
2023-04-03T18:40:11.367Z,6.30
2023-04-03T18:42:40.939Z,6.20
2023-04-03T18:45:10.400Z,6.10
2023-04-03T18:47:37.757Z,6.00
2023-04-03T18:50:06.719Z,6.00
2023-04-03T18:52:33.734Z,5.90
2023-04-03T18:55:00.724Z,5.90
2023-04-03T18:57:27.637Z,5.80
2023-04-03T18:59:54.558Z,5.70
2023-04-03T19:02:23.704Z,5.70
2023-04-03T19:04:52.513Z,5.60
2023-04-03T19:07:20.642Z,5.60
2023-04-03T19:09:47.526Z,5.50
2023-04-03T19:12:14.475Z,5.50
2023-04-03T19:14:44.722Z,5.40
2023-04-03T19:17:11.619Z,5.30
2023-04-03T19:19:38.740Z,5.30
2023-04-03T19:22:08.540Z,5.20
2023-04-03T19:24:35.709Z,5.20
2023-04-03T19:27:05.067Z,5.10
2023-04-03T19:29:31.970Z,5.10
2023-04-03T19:31:58.925Z,5.00
2023-04-03T19:34:25.873Z,5.00
2023-04-03T19:36:55.950Z,5.00
2023-04-03T19:39:22.883Z,4.90
2023-04-03T19:41:49.937Z,4.80
2023-04-03T19:44:16.802Z,4.80
2023-04-03T19:46:51.096Z,4.70
2023-04-03T19:49:21.109Z,4.70
2023-04-03T19:51:51.134Z,4.60
2023-04-03T19:54:18.075Z,4.60
2023-04-03T19:56:45.604Z,4.50
2023-04-03T19:59:13.109Z,4.50
2023-04-03T20:01:42.336Z,4.40
2023-04-03T20:04:09.468Z,4.40
2023-04-03T20:06:36.823Z,4.40
2023-04-03T20:09:04.210Z,4.40
2023-04-03T20:11:31.804Z,4.40
2023-04-03T20:13:58.657Z,4.30
2023-04-03T20:16:26.201Z,4.40
2023-04-03T20:18:56.464Z,4.40
2023-04-03T20:21:34.645Z,4.30
2023-04-03T20:24:03.256Z,4.30
2023-04-03T20:26:32.418Z,4.30
2023-04-03T20:29:01.564Z,4.30
2023-04-03T20:31:29.757Z,4.30
2023-04-03T20:33:57.130Z,4.30
2023-04-03T20:36:28.651Z,4.20
2023-04-03T20:38:55.631Z,4.20
2023-04-03T20:41:23.840Z,4.20
2023-04-03T20:43:50.870Z,4.20
2023-04-03T20:46:21.001Z,4.10
2023-04-03T20:48:48.300Z,4.10
2023-04-03T20:51:18.405Z,4.10
2023-04-03T20:53:48.913Z,4.10
2023-04-03T20:56:16.891Z,4.00
2023-04-03T20:58:45.068Z,4.00
2023-04-03T21:01:23.863Z,3.90
2023-04-03T21:03:55.531Z,3.90
2023-04-03T21:07:02.993Z,3.80
2023-04-03T21:10:07.331Z,3.70
2023-04-03T21:13:11.610Z,3.70
2023-04-03T21:15:52.223Z,3.60
2023-04-03T21:18:31.608Z,3.60
2023-04-03T21:20:58.535Z,3.50
2023-04-03T21:23:28.521Z,3.50
2023-04-03T21:25:55.974Z,3.40
2023-04-03T21:28:25.201Z,3.40
2023-04-03T21:30:52.452Z,3.30
2023-04-03T21:33:19.331Z,3.30
2023-04-03T21:35:46.157Z,3.30
2023-04-03T21:38:15.534Z,3.20
2023-04-03T21:40:46.548Z,3.20
2023-04-03T21:43:13.621Z,3.10
2023-04-03T21:45:40.850Z,3.10
2023-04-03T21:48:10.195Z,3.10
2023-04-03T21:50:37.252Z,3.00
2023-04-03T21:53:04.176Z,3.00
2023-04-03T21:55:31.103Z,3.00
2023-04-03T21:57:58.095Z,2.90
2023-04-03T22:00:25.285Z,3.00
2023-04-03T22:02:57.793Z,2.90
2023-04-03T22:05:35.983Z,2.90
2023-04-03T22:08:04.334Z,2.80
2023-04-03T22:10:31.648Z,2.80
2023-04-03T22:12:58.468Z,2.80
2023-04-03T22:15:25.677Z,2.70
2023-04-03T22:17:52.554Z,2.70
2023-04-03T22:20:19.431Z,2.70
2023-04-03T22:22:46.526Z,2.60
2023-04-03T22:25:13.568Z,2.60
2023-04-03T22:27:41.054Z,2.50
2023-04-03T22:30:08.670Z,2.50
2023-04-03T22:32:35.676Z,2.50
2023-04-03T22:35:03.020Z,2.50
2023-04-03T22:37:29.849Z,2.40
2023-04-03T22:39:56.749Z,2.40
2023-04-03T22:42:23.613Z,2.40
2023-04-03T22:44:50.437Z,2.40
2023-04-03T22:47:17.680Z,2.30
2023-04-03T22:49:44.497Z,2.30
2023-04-03T22:52:11.334Z,2.30
2023-04-03T22:54:38.145Z,2.30
2023-04-03T22:57:05.054Z,2.20
2023-04-03T22:59:32.683Z,2.20
2023-04-03T23:01:59.505Z,2.20
2023-04-03T23:04:26.686Z,2.20
2023-04-03T23:06:53.994Z,2.20
2023-04-03T23:09:21.475Z,2.10
2023-04-03T23:11:48.305Z,2.10
2023-04-03T23:14:15.180Z,2.10
2023-04-03T23:16:42.315Z,2.00
2023-04-03T23:19:09.529Z,2.00
2023-04-03T23:21:36.361Z,2.00
2023-04-03T23:24:03.272Z,2.00
2023-04-03T23:26:30.065Z,2.00
2023-04-03T23:28:56.967Z,2.00
2023-04-03T23:31:25.885Z,2.00
2023-04-03T23:33:53.012Z,1.90
2023-04-03T23:36:21.121Z,1.90
2023-04-03T23:38:48.074Z,1.90
2023-04-03T23:41:14.918Z,1.90
2023-04-03T23:43:42.337Z,1.90
2023-04-03T23:46:09.264Z,1.90
2023-04-03T23:48:36.447Z,1.90
2023-04-03T23:51:03.988Z,1.90
2023-04-03T23:53:30.882Z,1.90
2023-04-03T23:55:57.820Z,1.90
2023-04-03T23:58:24.686Z,1.90
